sensor_id;sensor_type;location;lat;lon;timestamp;P1;durP1;ratioP1;P2;durP2;ratioP2
50337;SDS011;46221;51.178;5.900;2023-03-01T00:01:05;4.82;;;2.63;;
50337;SDS011;46221;51.178;5.900;2023-03-01T00:03:40;4.72;;;2.83;;
50337;SDS011;46221;51.178;5.900;2023-03-01T00:06:08;3.83;;;2.83;;
50337;SDS011;46221;51.178;5.900;2023-03-01T00:08:35;4.47;;;2.63;;
50337;SDS011;46221;51.178;5.900;2023-03-01T00:13:34;4.43;;;2.70;;
50337;SDS011;46221;51.178;5.900;2023-03-01T00:16:02;3.92;;;2.63;;
50337;SDS011;46221;51.178;5.900;2023-03-01T00:18:30;6.10;;;3.50;;
50337;SDS011;46221;51.178;5.900;2023-03-01T00:20:57;4.72;;;2.75;;
50337;SDS011;46221;51.178;5.900;2023-03-01T00:23:23;4.03;;;2.80;;
50337;SDS011;46221;51.178;5.900;2023-03-01T00:25:50;4.75;;;2.63;;
50337;SDS011;46221;51.178;5.900;2023-03-01T00:28:18;4.53;;;2.75;;
50337;SDS011;46221;51.178;5.900;2023-03-01T00:30:45;4.22;;;2.60;;
50337;SDS011;46221;51.178;5.900;2023-03-01T00:33:12;6.03;;;3.53;;
50337;SDS011;46221;51.178;5.900;2023-03-01T00:35:38;5.15;;;2.60;;
50337;SDS011;46221;51.178;5.900;2023-03-01T00:38:05;4.53;;;2.67;;
50337;SDS011;46221;51.178;5.900;2023-03-01T00:40:33;4.13;;;3.28;;
50337;SDS011;46221;51.178;5.900;2023-03-01T00:43:00;5.20;;;2.33;;
50337;SDS011;46221;51.178;5.900;2023-03-01T00:45:27;5.50;;;3.20;;
50337;SDS011;46221;51.178;5.900;2023-03-01T00:47:54;4.78;;;2.92;;
50337;SDS011;46221;51.178;5.900;2023-03-01T00:50:20;5.57;;;2.85;;
50337;SDS011;46221;51.178;5.900;2023-03-01T00:52:50;4.50;;;2.60;;
50337;SDS011;46221;51.178;5.900;2023-03-01T00:55:18;4.32;;;2.85;;
50337;SDS011;46221;51.178;5.900;2023-03-01T00:57:44;4.63;;;2.40;;
50337;SDS011;46221;51.178;5.900;2023-03-01T01:00:11;4.82;;;2.72;;
50337;SDS011;46221;51.178;5.900;2023-03-01T01:02:38;4.38;;;2.38;;
50337;SDS011;46221;51.178;5.900;2023-03-01T01:05:04;4.47;;;2.72;;
50337;SDS011;46221;51.178;5.900;2023-03-01T01:07:32;4.90;;;2.50;;
50337;SDS011;46221;51.178;5.900;2023-03-01T01:09:58;4.30;;;2.42;;
50337;SDS011;46221;51.178;5.900;2023-03-01T01:12:25;6.25;;;2.80;;
50337;SDS011;46221;51.178;5.900;2023-03-01T01:14:51;3.88;;;2.65;;
50337;SDS011;46221;51.178;5.900;2023-03-01T01:17:18;4.40;;;2.60;;
50337;SDS011;46221;51.178;5.900;2023-03-01T01:19:44;3.95;;;2.80;;
50337;SDS011;46221;51.178;5.900;2023-03-01T01:22:11;4.95;;;2.30;;
50337;SDS011;46221;51.178;5.900;2023-03-01T01:24:37;5.05;;;2.70;;
50337;SDS011;46221;51.178;5.900;2023-03-01T01:27:04;4.82;;;3.15;;
50337;SDS011;46221;51.178;5.900;2023-03-01T01:29:30;4.55;;;2.80;;
50337;SDS011;46221;51.178;5.900;2023-03-01T01:31:57;5.18;;;2.90;;
50337;SDS011;46221;51.178;5.900;2023-03-01T01:34:23;4.35;;;2.78;;
50337;SDS011;46221;51.178;5.900;2023-03-01T01:36:50;3.75;;;2.60;;
50337;SDS011;46221;51.178;5.900;2023-03-01T01:39:20;3.78;;;2.60;;
50337;SDS011;46221;51.178;5.900;2023-03-01T01:41:47;4.80;;;2.80;;
50337;SDS011;46221;51.178;5.900;2023-03-01T01:44:24;8.32;;;2.90;;
50337;SDS011;46221;51.178;5.900;2023-03-01T01:46:57;4.20;;;2.63;;
50337;SDS011;46221;51.178;5.900;2023-03-01T01:49:41;5.07;;;2.78;;
50337;SDS011;46221;51.178;5.900;2023-03-01T01:52:13;4.15;;;2.50;;
50337;SDS011;46221;51.178;5.900;2023-03-01T01:54:49;4.18;;;2.67;;
50337;SDS011;46221;51.178;5.900;2023-03-01T01:58:02;4.88;;;2.58;;
50337;SDS011;46221;51.178;5.900;2023-03-01T02:00:15;5.60;;;2.50;;
50337;SDS011;46221;51.178;5.900;2023-03-01T02:02:45;3.38;;;2.38;;
50337;SDS011;46221;51.178;5.900;2023-03-01T02:08:23;4.43;;;2.83;;
50337;SDS011;46221;51.178;5.900;2023-03-01T02:10:52;3.78;;;2.60;;
50337;SDS011;46221;51.178;5.900;2023-03-01T02:13:21;5.32;;;2.40;;
50337;SDS011;46221;51.178;5.900;2023-03-01T02:15:49;3.72;;;2.50;;
50337;SDS011;46221;51.178;5.900;2023-03-01T02:18:17;4.63;;;2.85;;
50337;SDS011;46221;51.178;5.900;2023-03-01T02:21:02;5.05;;;3.17;;
50337;SDS011;46221;51.178;5.900;2023-03-01T02:23:38;4.80;;;2.70;;
50337;SDS011;46221;51.178;5.900;2023-03-01T02:26:15;5.55;;;2.15;;
50337;SDS011;46221;51.178;5.900;2023-03-01T02:28:45;4.25;;;2.55;;
50337;SDS011;46221;51.178;5.900;2023-03-01T02:31:14;3.35;;;2.47;;
50337;SDS011;46221;51.178;5.900;2023-03-01T02:34:02;4.05;;;2.78;;
50337;SDS011;46221;51.178;5.900;2023-03-01T02:36:37;4.18;;;2.58;;
50337;SDS011;46221;51.178;5.900;2023-03-01T02:39:07;4.57;;;2.60;;
50337;SDS011;46221;51.178;5.900;2023-03-01T02:41:41;3.72;;;2.70;;
50337;SDS011;46221;51.178;5.900;2023-03-01T02:44:12;4.68;;;2.58;;
50337;SDS011;46221;51.178;5.900;2023-03-01T02:46:43;5.03;;;2.78;;
50337;SDS011;46221;51.178;5.900;2023-03-01T02:49:28;3.30;;;2.40;;
50337;SDS011;46221;51.178;5.900;2023-03-01T02:52:01;4.07;;;2.40;;
50337;SDS011;46221;51.178;5.900;2023-03-01T02:54:34;3.65;;;2.50;;
50337;SDS011;46221;51.178;5.900;2023-03-01T02:57:09;3.90;;;2.70;;
50337;SDS011;46221;51.178;5.900;2023-03-01T02:59:36;3.70;;;2.30;;
50337;SDS011;46221;51.178;5.900;2023-03-01T03:02:24;3.85;;;2.38;;
50337;SDS011;46221;51.178;5.900;2023-03-01T03:05:06;3.70;;;2.30;;
50337;SDS011;46221;51.178;5.900;2023-03-01T03:07:35;4.47;;;2.40;;
50337;SDS011;46221;51.178;5.900;2023-03-01T03:10:04;4.82;;;2.45;;
50337;SDS011;46221;51.178;5.900;2023-03-01T03:12:34;4.20;;;2.65;;
50337;SDS011;46221;51.178;5.900;2023-03-01T03:15:01;4.85;;;2.88;;
50337;SDS011;46221;51.178;5.900;2023-03-01T03:17:27;4.15;;;2.25;;
50337;SDS011;46221;51.178;5.900;2023-03-01T03:19:53;4.00;;;2.67;;
50337;SDS011;46221;51.178;5.900;2023-03-01T03:22:20;3.92;;;2.90;;
50337;SDS011;46221;51.178;5.900;2023-03-01T03:24:46;3.78;;;2.17;;
50337;SDS011;46221;51.178;5.900;2023-03-01T03:27:13;3.25;;;2.25;;
50337;SDS011;46221;51.178;5.900;2023-03-01T03:29:40;3.90;;;2.58;;
50337;SDS011;46221;51.178;5.900;2023-03-01T03:32:07;4.93;;;2.65;;
50337;SDS011;46221;51.178;5.900;2023-03-01T03:34:33;3.40;;;2.38;;
50337;SDS011;46221;51.178;5.900;2023-03-01T03:37:00;4.18;;;2.70;;
50337;SDS011;46221;51.178;5.900;2023-03-01T03:39:26;4.07;;;2.67;;
50337;SDS011;46221;51.178;5.900;2023-03-01T03:41:53;3.97;;;2.72;;
50337;SDS011;46221;51.178;5.900;2023-03-01T03:44:20;4.28;;;2.72;;
50337;SDS011;46221;51.178;5.900;2023-03-01T03:46:47;3.40;;;2.53;;
50337;SDS011;46221;51.178;5.900;2023-03-01T03:49:13;3.88;;;2.78;;
50337;SDS011;46221;51.178;5.900;2023-03-01T03:51:40;4.30;;;3.10;;
50337;SDS011;46221;51.178;5.900;2023-03-01T03:54:06;4.00;;;2.70;;
50337;SDS011;46221;51.178;5.900;2023-03-01T03:56:33;4.22;;;2.80;;
50337;SDS011;46221;51.178;5.900;2023-03-01T03:58:59;3.83;;;2.63;;
50337;SDS011;46221;51.178;5.900;2023-03-01T04:01:26;3.72;;;2.40;;
50337;SDS011;46221;51.178;5.900;2023-03-01T04:03:52;4.15;;;2.58;;
50337;SDS011;46221;51.178;5.900;2023-03-01T04:06:20;3.28;;;2.47;;
50337;SDS011;46221;51.178;5.900;2023-03-01T04:08:47;4.13;;;2.58;;
50337;SDS011;46221;51.178;5.900;2023-03-01T04:11:17;3.33;;;2.35;;
50337;SDS011;46221;51.178;5.900;2023-03-01T04:13:53;4.00;;;2.55;;
50337;SDS011;46221;51.178;5.900;2023-03-01T04:16:22;3.72;;;2.60;;
50337;SDS011;46221;51.178;5.900;2023-03-01T04:18:49;5.82;;;2.90;;
50337;SDS011;46221;51.178;5.900;2023-03-01T04:21:16;4.65;;;2.92;;
50337;SDS011;46221;51.178;5.900;2023-03-01T04:23:43;4.55;;;2.40;;
50337;SDS011;46221;51.178;5.900;2023-03-01T04:26:09;3.38;;;2.30;;
50337;SDS011;46221;51.178;5.900;2023-03-01T04:28:37;3.83;;;2.80;;
50337;SDS011;46221;51.178;5.900;2023-03-01T04:31:13;3.67;;;2.65;;
50337;SDS011;46221;51.178;5.900;2023-03-01T04:33:47;6.47;;;2.80;;
50337;SDS011;46221;51.178;5.900;2023-03-01T04:36:18;4.32;;;2.80;;
50337;SDS011;46221;51.178;5.900;2023-03-01T04:38:50;4.32;;;2.60;;
50337;SDS011;46221;51.178;5.900;2023-03-01T04:41:18;4.38;;;2.60;;
50337;SDS011;46221;51.178;5.900;2023-03-01T04:43:46;3.95;;;2.40;;
50337;SDS011;46221;51.178;5.900;2023-03-01T04:46:14;4.28;;;2.80;;
50337;SDS011;46221;51.178;5.900;2023-03-01T04:48:43;3.97;;;2.72;;
50337;SDS011;46221;51.178;5.900;2023-03-01T04:51:10;3.47;;;2.25;;
50337;SDS011;46221;51.178;5.900;2023-03-01T04:53:40;5.28;;;3.47;;
50337;SDS011;46221;51.178;5.900;2023-03-01T04:56:07;4.20;;;2.70;;
50337;SDS011;46221;51.178;5.900;2023-03-01T04:58:34;9.68;;;3.22;;
50337;SDS011;46221;51.178;5.900;2023-03-01T05:01:00;4.35;;;2.67;;
50337;SDS011;46221;51.178;5.900;2023-03-01T05:03:27;3.53;;;2.50;;
50337;SDS011;46221;51.178;5.900;2023-03-01T05:05:54;4.50;;;2.83;;
50337;SDS011;46221;51.178;5.900;2023-03-01T05:08:25;4.05;;;2.60;;
50337;SDS011;46221;51.178;5.900;2023-03-01T05:10:53;4.93;;;2.78;;
50337;SDS011;46221;51.178;5.900;2023-03-01T05:13:20;5.93;;;2.83;;
50337;SDS011;46221;51.178;5.900;2023-03-01T05:15:57;4.78;;;2.90;;
50337;SDS011;46221;51.178;5.900;2023-03-01T05:18:26;4.22;;;3.05;;
50337;SDS011;46221;51.178;5.900;2023-03-01T05:20:54;4.57;;;2.75;;
50337;SDS011;46221;51.178;5.900;2023-03-01T05:23:27;4.75;;;3.00;;
50337;SDS011;46221;51.178;5.900;2023-03-01T05:25:53;4.97;;;3.13;;
50337;SDS011;46221;51.178;5.900;2023-03-01T05:28:20;4.00;;;2.60;;
50337;SDS011;46221;51.178;5.900;2023-03-01T05:30:47;3.88;;;2.60;;
50337;SDS011;46221;51.178;5.900;2023-03-01T05:33:13;4.28;;;2.90;;
50337;SDS011;46221;51.178;5.900;2023-03-01T05:35:40;4.00;;;2.58;;
50337;SDS011;46221;51.178;5.900;2023-03-01T05:38:09;5.32;;;3.45;;
50337;SDS011;46221;51.178;5.900;2023-03-01T05:40:41;3.80;;;2.72;;
50337;SDS011;46221;51.178;5.900;2023-03-01T05:43:10;4.65;;;3.28;;
50337;SDS011;46221;51.178;5.900;2023-03-01T05:45:37;4.88;;;2.83;;
50337;SDS011;46221;51.178;5.900;2023-03-01T05:48:05;4.85;;;2.92;;
50337;SDS011;46221;51.178;5.900;2023-03-01T05:50:33;7.22;;;2.75;;
50337;SDS011;46221;51.178;5.900;2023-03-01T05:53:06;7.50;;;2.92;;
50337;SDS011;46221;51.178;5.900;2023-03-01T05:55:38;4.47;;;2.42;;
50337;SDS011;46221;51.178;5.900;2023-03-01T05:58:07;5.43;;;3.10;;
50337;SDS011;46221;51.178;5.900;2023-03-01T06:00:35;8.30;;;3.67;;
50337;SDS011;46221;51.178;5.900;2023-03-01T06:03:02;8.57;;;3.03;;
50337;SDS011;46221;51.178;5.900;2023-03-01T06:05:29;5.47;;;2.67;;
50337;SDS011;46221;51.178;5.900;2023-03-01T06:07:58;6.13;;;3.13;;
50337;SDS011;46221;51.178;5.900;2023-03-01T06:10:25;4.18;;;2.55;;
50337;SDS011;46221;51.178;5.900;2023-03-01T06:12:51;5.63;;;2.85;;
50337;SDS011;46221;51.178;5.900;2023-03-01T06:15:20;6.65;;;2.92;;
50337;SDS011;46221;51.178;5.900;2023-03-01T06:17:47;5.45;;;3.30;;
50337;SDS011;46221;51.178;5.900;2023-03-01T06:20:18;4.32;;;2.70;;
50337;SDS011;46221;51.178;5.900;2023-03-01T06:22:47;6.32;;;2.88;;
50337;SDS011;46221;51.178;5.900;2023-03-01T06:25:16;5.20;;;2.60;;
50337;SDS011;46221;51.178;5.900;2023-03-01T06:27:44;4.97;;;2.78;;
50337;SDS011;46221;51.178;5.900;2023-03-01T06:30:15;5.35;;;2.90;;
50337;SDS011;46221;51.178;5.900;2023-03-01T06:32:43;4.82;;;3.05;;
50337;SDS011;46221;51.178;5.900;2023-03-01T06:35:14;4.13;;;2.67;;
50337;SDS011;46221;51.178;5.900;2023-03-01T06:37:43;4.10;;;2.72;;
50337;SDS011;46221;51.178;5.900;2023-03-01T06:40:13;5.05;;;3.30;;
50337;SDS011;46221;51.178;5.900;2023-03-01T06:42:41;6.28;;;3.22;;
50337;SDS011;46221;51.178;5.900;2023-03-01T06:45:09;4.60;;;3.03;;
50337;SDS011;46221;51.178;5.900;2023-03-01T06:47:36;5.07;;;3.58;;
50337;SDS011;46221;51.178;5.900;2023-03-01T06:50:03;4.88;;;3.00;;
50337;SDS011;46221;51.178;5.900;2023-03-01T06:52:35;5.22;;;2.90;;
50337;SDS011;46221;51.178;5.900;2023-03-01T06:55:02;5.47;;;3.05;;
50337;SDS011;46221;51.178;5.900;2023-03-01T06:57:31;6.35;;;3.58;;
50337;SDS011;46221;51.178;5.900;2023-03-01T06:59:58;7.57;;;3.22;;
50337;SDS011;46221;51.178;5.900;2023-03-01T07:02:24;6.32;;;3.45;;
50337;SDS011;46221;51.178;5.900;2023-03-01T07:04:51;5.55;;;3.03;;
50337;SDS011;46221;51.178;5.900;2023-03-01T07:07:18;3.78;;;2.63;;
50337;SDS011;46221;51.178;5.900;2023-03-01T07:09:45;3.97;;;2.53;;
50337;SDS011;46221;51.178;5.900;2023-03-01T07:12:12;4.43;;;2.90;;
50337;SDS011;46221;51.178;5.900;2023-03-01T07:14:38;4.18;;;2.92;;
50337;SDS011;46221;51.178;5.900;2023-03-01T07:17:05;4.60;;;2.83;;
50337;SDS011;46221;51.178;5.900;2023-03-01T07:19:32;4.00;;;2.75;;
50337;SDS011;46221;51.178;5.900;2023-03-01T07:21:58;5.03;;;2.92;;
50337;SDS011;46221;51.178;5.900;2023-03-01T07:24:25;4.25;;;3.30;;
50337;SDS011;46221;51.178;5.900;2023-03-01T07:26:51;6.13;;;2.90;;
50337;SDS011;46221;51.178;5.900;2023-03-01T07:29:19;6.72;;;3.17;;
50337;SDS011;46221;51.178;5.900;2023-03-01T07:31:45;3.95;;;2.75;;
50337;SDS011;46221;51.178;5.900;2023-03-01T07:34:12;5.68;;;2.55;;
50337;SDS011;46221;51.178;5.900;2023-03-01T07:36:38;7.13;;;3.20;;
50337;SDS011;46221;51.178;5.900;2023-03-01T07:39:05;4.70;;;3.00;;
50337;SDS011;46221;51.178;5.900;2023-03-01T07:41:35;5.72;;;3.13;;
50337;SDS011;46221;51.178;5.900;2023-03-01T07:44:08;5.03;;;3.17;;
50337;SDS011;46221;51.178;5.900;2023-03-01T07:46:35;5.93;;;3.20;;
50337;SDS011;46221;51.178;5.900;2023-03-01T07:49:01;4.10;;;2.60;;
50337;SDS011;46221;51.178;5.900;2023-03-01T07:51:30;8.52;;;2.72;;
50337;SDS011;46221;51.178;5.900;2023-03-01T07:53:57;4.70;;;3.03;;
50337;SDS011;46221;51.178;5.900;2023-03-01T07:56:24;4.57;;;2.47;;
50337;SDS011;46221;51.178;5.900;2023-03-01T07:58:50;5.68;;;3.35;;
50337;SDS011;46221;51.178;5.900;2023-03-01T08:01:18;5.57;;;3.03;;
50337;SDS011;46221;51.178;5.900;2023-03-01T08:03:46;4.35;;;2.95;;
50337;SDS011;46221;51.178;5.900;2023-03-01T08:06:14;5.45;;;2.80;;
50337;SDS011;46221;51.178;5.900;2023-03-01T08:08:43;5.07;;;3.08;;
50337;SDS011;46221;51.178;5.900;2023-03-01T08:11:10;6.20;;;2.83;;
50337;SDS011;46221;51.178;5.900;2023-03-01T08:13:39;5.18;;;2.75;;
50337;SDS011;46221;51.178;5.900;2023-03-01T08:16:07;5.38;;;2.97;;
50337;SDS011;46221;51.178;5.900;2023-03-01T08:18:36;4.85;;;2.92;;
50337;SDS011;46221;51.178;5.900;2023-03-01T08:21:11;9.00;;;3.22;;
50337;SDS011;46221;51.178;5.900;2023-03-01T08:23:39;5.32;;;3.10;;
50337;SDS011;46221;51.178;5.900;2023-03-01T08:26:19;4.88;;;3.13;;
50337;SDS011;46221;51.178;5.900;2023-03-01T08:28:48;5.50;;;3.00;;
50337;SDS011;46221;51.178;5.900;2023-03-01T08:31:17;7.38;;;3.00;;
50337;SDS011;46221;51.178;5.900;2023-03-01T08:33:49;5.22;;;2.90;;
50337;SDS011;46221;51.178;5.900;2023-03-01T08:36:28;5.40;;;3.22;;
50337;SDS011;46221;51.178;5.900;2023-03-01T08:38:57;7.55;;;3.10;;
50337;SDS011;46221;51.178;5.900;2023-03-01T08:41:26;5.63;;;2.78;;
50337;SDS011;46221;51.178;5.900;2023-03-01T08:43:52;4.63;;;2.85;;
50337;SDS011;46221;51.178;5.900;2023-03-01T08:46:25;5.43;;;2.90;;
50337;SDS011;46221;51.178;5.900;2023-03-01T08:48:55;4.75;;;3.28;;
50337;SDS011;46221;51.178;5.900;2023-03-01T08:51:22;7.30;;;3.00;;
50337;SDS011;46221;51.178;5.900;2023-03-01T08:53:49;4.55;;;3.05;;
50337;SDS011;46221;51.178;5.900;2023-03-01T08:56:16;5.47;;;3.33;;
50337;SDS011;46221;51.178;5.900;2023-03-01T08:58:44;4.25;;;3.17;;
50337;SDS011;46221;51.178;5.900;2023-03-01T09:01:13;5.32;;;2.83;;
50337;SDS011;46221;51.178;5.900;2023-03-01T09:03:42;4.65;;;2.70;;
50337;SDS011;46221;51.178;5.900;2023-03-01T09:06:09;4.15;;;2.50;;
50337;SDS011;46221;51.178;5.900;2023-03-01T09:08:47;4.65;;;2.85;;
50337;SDS011;46221;51.178;5.900;2023-03-01T09:11:15;5.18;;;3.17;;
50337;SDS011;46221;51.178;5.900;2023-03-01T09:13:44;5.78;;;3.22;;
50337;SDS011;46221;51.178;5.900;2023-03-01T09:16:12;4.80;;;3.08;;
50337;SDS011;46221;51.178;5.900;2023-03-01T09:18:40;4.78;;;3.00;;
50337;SDS011;46221;51.178;5.900;2023-03-01T09:21:08;4.32;;;2.63;;
50337;SDS011;46221;51.178;5.900;2023-03-01T09:23:41;4.85;;;3.17;;
50337;SDS011;46221;51.178;5.900;2023-03-01T09:26:11;4.38;;;3.22;;
50337;SDS011;46221;51.178;5.900;2023-03-01T09:28:39;6.47;;;3.50;;
50337;SDS011;46221;51.178;5.900;2023-03-01T09:31:10;5.00;;;2.92;;
50337;SDS011;46221;51.178;5.900;2023-03-01T09:33:39;5.53;;;2.97;;
50337;SDS011;46221;51.178;5.900;2023-03-01T09:36:08;4.65;;;2.83;;
50337;SDS011;46221;51.178;5.900;2023-03-01T09:38:37;4.70;;;3.08;;
50337;SDS011;46221;51.178;5.900;2023-03-01T09:41:11;7.07;;;3.55;;
50337;SDS011;46221;51.178;5.900;2023-03-01T09:43:53;5.38;;;3.45;;
50337;SDS011;46221;51.178;5.900;2023-03-01T09:46:29;5.05;;;3.20;;
50337;SDS011;46221;51.178;5.900;2023-03-01T09:49:09;4.82;;;3.05;;
50337;SDS011;46221;51.178;5.900;2023-03-01T09:51:55;4.50;;;2.80;;
50337;SDS011;46221;51.178;5.900;2023-03-01T09:54:25;4.75;;;3.05;;
50337;SDS011;46221;51.178;5.900;2023-03-01T10:02:41;4.65;;;3.00;;
50337;SDS011;46221;51.178;5.900;2023-03-01T10:05:18;4.47;;;3.17;;
50337;SDS011;46221;51.178;5.900;2023-03-01T10:08:02;4.40;;;3.10;;
50337;SDS011;46221;51.178;5.900;2023-03-01T10:10:44;5.63;;;3.47;;
50337;SDS011;46221;51.178;5.900;2023-03-01T10:13:17;4.80;;;3.25;;
50337;SDS011;46221;51.178;5.900;2023-03-01T10:16:12;8.40;;;3.60;;
50337;SDS011;46221;51.178;5.900;2023-03-01T10:18:40;4.57;;;2.92;;
50337;SDS011;46221;51.178;5.900;2023-03-01T10:21:18;4.50;;;3.45;;
50337;SDS011;46221;51.178;5.900;2023-03-01T10:23:49;5.32;;;3.50;;
50337;SDS011;46221;51.178;5.900;2023-03-01T10:27:01;4.13;;;2.90;;
50337;SDS011;46221;51.178;5.900;2023-03-01T10:29:34;4.97;;;3.42;;
50337;SDS011;46221;51.178;5.900;2023-03-01T10:32:05;4.65;;;3.22;;
50337;SDS011;46221;51.178;5.900;2023-03-01T10:34:35;4.95;;;3.35;;
50337;SDS011;46221;51.178;5.900;2023-03-01T10:37:09;5.05;;;2.88;;
50337;SDS011;46221;51.178;5.900;2023-03-01T10:42:48;5.00;;;2.95;;
50337;SDS011;46221;51.178;5.900;2023-03-01T10:47:42;4.13;;;2.97;;
50337;SDS011;46221;51.178;5.900;2023-03-01T10:50:21;4.93;;;3.17;;
50337;SDS011;46221;51.178;5.900;2023-03-01T10:52:56;4.45;;;3.00;;
50337;SDS011;46221;51.178;5.900;2023-03-01T10:58:33;4.78;;;3.20;;
50337;SDS011;46221;51.178;5.900;2023-03-01T11:01:00;5.07;;;3.38;;
50337;SDS011;46221;51.178;5.900;2023-03-01T11:08:46;4.57;;;3.20;;
50337;SDS011;46221;51.178;5.900;2023-03-01T11:14:07;4.97;;;3.33;;
50337;SDS011;46221;51.178;5.900;2023-03-01T11:16:59;4.60;;;3.58;;
50337;SDS011;46221;51.178;5.900;2023-03-01T11:19:31;4.68;;;3.20;;
50337;SDS011;46221;51.178;5.900;2023-03-01T11:22:17;4.90;;;3.40;;
50337;SDS011;46221;51.178;5.900;2023-03-01T11:24:47;4.03;;;2.95;;
50337;SDS011;46221;51.178;5.900;2023-03-01T11:27:36;4.53;;;3.30;;
50337;SDS011;46221;51.178;5.900;2023-03-01T11:35:35;5.00;;;3.33;;
50337;SDS011;46221;51.178;5.900;2023-03-01T11:40:57;4.72;;;3.05;;
50337;SDS011;46221;51.178;5.900;2023-03-01T11:43:42;4.93;;;3.30;;
50337;SDS011;46221;51.178;5.900;2023-03-01T11:46:26;4.30;;;3.17;;
50337;SDS011;46221;51.178;5.900;2023-03-01T12:08:38;6.10;;;3.40;;
50337;SDS011;46221;51.178;5.900;2023-03-01T12:11:11;4.97;;;3.45;;
50337;SDS011;46221;51.178;5.900;2023-03-01T12:14:02;8.48;;;3.53;;
50337;SDS011;46221;51.178;5.900;2023-03-01T12:25:58;6.18;;;3.30;;
50337;SDS011;46221;51.178;5.900;2023-03-01T12:28:08;6.18;;;3.78;;
50337;SDS011;46221;51.178;5.900;2023-03-01T12:42:54;5.63;;;3.60;;
50337;SDS011;46221;51.178;5.900;2023-03-01T12:51:11;6.50;;;3.95;;
50337;SDS011;46221;51.178;5.900;2023-03-01T12:53:44;7.45;;;4.20;;
50337;SDS011;46221;51.178;5.900;2023-03-01T12:56:20;7.22;;;3.67;;
50337;SDS011;46221;51.178;5.900;2023-03-01T13:13:23;6.68;;;3.92;;
50337;SDS011;46221;51.178;5.900;2023-03-01T13:16:20;6.70;;;4.03;;
50337;SDS011;46221;51.178;5.900;2023-03-01T13:18:46;6.95;;;3.92;;
50337;SDS011;46221;51.178;5.900;2023-03-01T13:21:32;5.45;;;3.45;;
50337;SDS011;46221;51.178;5.900;2023-03-01T13:24:01;5.55;;;4.03;;
50337;SDS011;46221;51.178;5.900;2023-03-01T13:26:28;5.20;;;3.75;;
50337;SDS011;46221;51.178;5.900;2023-03-01T13:28:55;7.65;;;3.75;;
50337;SDS011;46221;51.178;5.900;2023-03-01T13:33:53;8.00;;;3.65;;
50337;SDS011;46221;51.178;5.900;2023-03-01T13:41:55;7.03;;;3.67;;
50337;SDS011;46221;51.178;5.900;2023-03-01T13:44:37;4.95;;;3.53;;
50337;SDS011;46221;51.178;5.900;2023-03-01T13:49:45;5.65;;;3.67;;
50337;SDS011;46221;51.178;5.900;2023-03-01T13:57:41;4.70;;;3.17;;
50337;SDS011;46221;51.178;5.900;2023-03-01T14:03:01;6.13;;;3.47;;
50337;SDS011;46221;51.178;5.900;2023-03-01T14:05:35;5.55;;;3.50;;
50337;SDS011;46221;51.178;5.900;2023-03-01T14:08:14;5.55;;;4.00;;
50337;SDS011;46221;51.178;5.900;2023-03-01T14:11:08;5.70;;;4.00;;
50337;SDS011;46221;51.178;5.900;2023-03-01T14:13:48;4.60;;;3.17;;
50337;SDS011;46221;51.178;5.900;2023-03-01T14:19:21;5.50;;;3.33;;
50337;SDS011;46221;51.178;5.900;2023-03-01T14:24:44;5.95;;;3.30;;
50337;SDS011;46221;51.178;5.900;2023-03-01T14:27:15;6.05;;;3.50;;
50337;SDS011;46221;51.178;5.900;2023-03-01T14:30:03;4.90;;;2.97;;
50337;SDS011;46221;51.178;5.900;2023-03-01T14:32:38;7.10;;;3.60;;
50337;SDS011;46221;51.178;5.900;2023-03-01T14:35:19;6.43;;;3.38;;
50337;SDS011;46221;51.178;5.900;2023-03-01T14:37:54;5.82;;;3.60;;
50337;SDS011;46221;51.178;5.900;2023-03-01T14:40:32;4.95;;;3.35;;
50337;SDS011;46221;51.178;5.900;2023-03-01T14:43:01;7.40;;;3.50;;
50337;SDS011;46221;51.178;5.900;2023-03-01T14:45:38;6.07;;;3.40;;
50337;SDS011;46221;51.178;5.900;2023-03-01T14:48:14;6.32;;;3.00;;
50337;SDS011;46221;51.178;5.900;2023-03-01T14:50:44;8.15;;;3.03;;
50337;SDS011;46221;51.178;5.900;2023-03-01T14:53:16;4.70;;;2.75;;
50337;SDS011;46221;51.178;5.900;2023-03-01T14:55:47;5.65;;;2.80;;
50337;SDS011;46221;51.178;5.900;2023-03-01T14:58:22;5.22;;;3.00;;
50337;SDS011;46221;51.178;5.900;2023-03-01T15:00:57;5.38;;;3.00;;
50337;SDS011;46221;51.178;5.900;2023-03-01T15:03:36;5.35;;;3.22;;
50337;SDS011;46221;51.178;5.900;2023-03-01T15:06:06;6.13;;;3.10;;
50337;SDS011;46221;51.178;5.900;2023-03-01T15:08:33;5.72;;;3.22;;
50337;SDS011;46221;51.178;5.900;2023-03-01T15:11:17;4.68;;;2.97;;
50337;SDS011;46221;51.178;5.900;2023-03-01T15:13:48;5.22;;;2.83;;
50337;SDS011;46221;51.178;5.900;2023-03-01T15:16:16;8.05;;;3.17;;
50337;SDS011;46221;51.178;5.900;2023-03-01T15:18:55;5.03;;;2.90;;
50337;SDS011;46221;51.178;5.900;2023-03-01T15:21:38;5.60;;;3.28;;
50337;SDS011;46221;51.178;5.900;2023-03-01T15:29:28;5.22;;;2.83;;
50337;SDS011;46221;51.178;5.900;2023-03-01T15:32:03;4.70;;;2.67;;
50337;SDS011;46221;51.178;5.900;2023-03-01T15:34:38;6.80;;;3.00;;
50337;SDS011;46221;51.178;5.900;2023-03-01T15:37:06;5.00;;;2.53;;
50337;SDS011;46221;51.178;5.900;2023-03-01T15:39:54;6.80;;;3.10;;
50337;SDS011;46221;51.178;5.900;2023-03-01T15:47:58;4.20;;;2.80;;
50337;SDS011;46221;51.178;5.900;2023-03-01T15:50:33;5.20;;;2.75;;
50337;SDS011;46221;51.178;5.900;2023-03-01T15:53:06;7.53;;;3.38;;
50337;SDS011;46221;51.178;5.900;2023-03-01T15:55:37;3.90;;;2.65;;
50337;SDS011;46221;51.178;5.900;2023-03-01T15:58:04;7.97;;;2.95;;
50337;SDS011;46221;51.178;5.900;2023-03-01T16:00:32;7.88;;;3.22;;
50337;SDS011;46221;51.178;5.900;2023-03-01T16:02:59;8.90;;;2.80;;
50337;SDS011;46221;51.178;5.900;2023-03-01T16:05:27;7.15;;;3.03;;
50337;SDS011;46221;51.178;5.900;2023-03-01T16:07:56;8.77;;;3.22;;
50337;SDS011;46221;51.178;5.900;2023-03-01T16:10:23;12.20;;;3.45;;
50337;SDS011;46221;51.178;5.900;2023-03-01T16:12:50;8.40;;;2.90;;
50337;SDS011;46221;51.178;5.900;2023-03-01T16:15:19;9.90;;;3.13;;
50337;SDS011;46221;51.178;5.900;2023-03-01T16:17:51;12.88;;;3.42;;
50337;SDS011;46221;51.178;5.900;2023-03-01T16:20:18;13.82;;;3.55;;
50337;SDS011;46221;51.178;5.900;2023-03-01T16:22:53;12.67;;;3.33;;
50337;SDS011;46221;51.178;5.900;2023-03-01T16:25:20;13.52;;;3.22;;
50337;SDS011;46221;51.178;5.900;2023-03-01T16:27:48;13.40;;;3.88;;
50337;SDS011;46221;51.178;5.900;2023-03-01T16:30:17;8.95;;;3.05;;
50337;SDS011;46221;51.178;5.900;2023-03-01T16:32:56;12.52;;;3.50;;
50337;SDS011;46221;51.178;5.900;2023-03-01T16:35:53;17.88;;;3.42;;
50337;SDS011;46221;51.178;5.900;2023-03-01T16:38:20;10.98;;;3.05;;
50337;SDS011;46221;51.178;5.900;2023-03-01T16:40:47;11.43;;;3.83;;
50337;SDS011;46221;51.178;5.900;2023-03-01T16:43:15;13.40;;;4.20;;
50337;SDS011;46221;51.178;5.900;2023-03-01T16:45:41;10.13;;;4.03;;
50337;SDS011;46221;51.178;5.900;2023-03-01T16:48:10;8.57;;;4.13;;
50337;SDS011;46221;51.178;5.900;2023-03-01T16:50:37;10.25;;;4.28;;
50337;SDS011;46221;51.178;5.900;2023-03-01T16:53:03;12.35;;;4.88;;
50337;SDS011;46221;51.178;5.900;2023-03-01T16:55:30;9.45;;;4.75;;
50337;SDS011;46221;51.178;5.900;2023-03-01T16:57:56;12.73;;;5.32;;
50337;SDS011;46221;51.178;5.900;2023-03-01T17:00:23;10.27;;;5.22;;
50337;SDS011;46221;51.178;5.900;2023-03-01T17:02:49;9.73;;;4.45;;
50337;SDS011;46221;51.178;5.900;2023-03-01T17:05:17;10.63;;;4.53;;
50337;SDS011;46221;51.178;5.900;2023-03-01T17:07:46;6.45;;;3.92;;
50337;SDS011;46221;51.178;5.900;2023-03-01T17:10:13;8.25;;;3.72;;
50337;SDS011;46221;51.178;5.900;2023-03-01T17:12:39;8.13;;;4.40;;
50337;SDS011;46221;51.178;5.900;2023-03-01T17:15:09;10.00;;;4.35;;
50337;SDS011;46221;51.178;5.900;2023-03-01T17:17:38;9.30;;;4.00;;
50337;SDS011;46221;51.178;5.900;2023-03-01T17:20:04;9.40;;;4.07;;
50337;SDS011;46221;51.178;5.900;2023-03-01T17:22:31;8.68;;;3.67;;